Time;durP1;ratioP1;P1;durP2;ratioP2;P2;SDS_P1;SDS_P2;PMS_P1;PMS_P2;Temp;Humidity;BMP_temperature;BMP_pressure;BME280_temperature;BME280_humidity;BME280_pressure;Samples;Min_cycle;Max_cycle;Signal;HPM_P1;HPM_P2
2023/08/11 00:00:26;;;;;;;5.95;3.35;;;14.00;99.90;;;-144.05;88.30;56897.69;6159350;23;20410;-83
2023/08/11 00:02:52;;;;;;;4.85;3.97;;;14.00;99.90;;;-144.05;88.21;56912.56;6166083;23;20013;-86
2023/08/11 00:05:19;;;;;;;5.18;3.75;;;13.90;99.90;;;-144.05;88.22;56904.06;6137944;23;20014;-84
2023/08/11 00:07:50;;;;;;;4.40;3.60;;;13.90;99.90;;;-144.05;88.46;56889.19;6136315;23;20044;-83
2023/08/11 00:10:20;;;;;;;4.93;3.42;;;13.90;99.90;;;-144.05;88.59;56906.19;6162075;23;20006;-84
2023/08/11 00:12:47;;;;;;;5.65;4.03;;;13.90;99.90;;;-144.05;88.42;56908.31;6135646;23;20424;-87
2023/08/11 00:15:13;;;;;;;4.70;3.50;;;13.90;99.90;;;-144.05;88.75;56904.06;6162102;23;20016;-83
2023/08/11 00:17:40;;;;;;;5.40;3.63;;;13.90;99.90;;;-144.05;88.72;56908.31;6161515;23;20002;-82
2023/08/11 00:20:08;;;;;;;6.13;3.80;;;13.80;99.90;;;-144.05;88.74;56893.44;6133969;23;20021;-85
2023/08/11 00:22:37;;;;;;;4.80;3.42;;;13.80;99.90;;;-144.05;88.73;56925.28;6133843;23;20010;-84
2023/08/11 00:25:03;;;;;;;4.95;3.45;;;13.80;99.90;;;-144.05;88.98;56899.81;6145186;23;20024;-85
2023/08/11 00:27:29;;;;;;;4.50;3.17;;;13.80;99.90;;;-144.05;89.21;56889.19;6159809;23;20029;-82
2023/08/11 00:29:57;;;;;;;7.70;3.97;;;13.80;99.90;;;-144.05;89.29;56895.56;6159034;23;20005;-83
2023/08/11 00:32:24;;;;;;;5.93;3.47;;;13.80;99.90;;;-144.05;89.31;56891.31;6159287;23;20084;-82
2023/08/11 00:34:51;;;;;;;9.27;3.85;;;13.80;99.90;;;-144.05;89.40;56880.69;6157721;23;20009;-84
2023/08/11 00:37:17;;;;;;;8.38;3.83;;;13.90;99.90;;;-144.05;89.31;56897.69;6158891;23;20395;-84
2023/08/11 00:39:43;;;;;;;6.13;4.35;;;13.90;99.90;;;-144.05;89.51;56925.28;6156969;23;20013;-84
2023/08/11 00:42:08;;;;;;;7.03;4.05;;;14.00;99.90;;;-144.05;89.36;56904.06;6158713;23;20069;-82
2023/08/11 00:44:34;;;;;;;6.68;4.07;;;14.00;99.90;;;-144.05;89.54;56893.44;6180884;23;20013;-83
2023/08/11 00:47:00;;;;;;;4.93;3.80;;;14.00;99.90;;;-144.05;89.34;56929.53;6181609;23;20013;-82
2023/08/11 00:49:27;;;;;;;6.07;4.38;;;14.00;99.90;;;-144.05;89.19;56884.94;6157662;23;20065;-83
2023/08/11 00:51:53;;;;;;;11.73;4.00;;;14.00;99.90;;;-144.05;88.75;56899.81;6180826;23;20068;-82
2023/08/11 00:54:21;;;;;;;7.13;3.95;;;14.00;99.90;;;-144.05;88.76;56889.19;6158230;23;20009;-83
2023/08/11 00:56:48;;;;;;;8.40;3.80;;;13.90;99.90;;;-144.05;88.88;56878.56;6176488;23;20013;-83
2023/08/11 00:59:19;;;;;;;6.25;3.80;;;13.90;99.90;;;-144.05;88.70;56897.69;6164069;23;20059;-83
2023/08/11 01:01:45;;;;;;;4.38;3.08;;;13.90;99.90;;;-144.05;88.90;56897.69;6162166;23;20096;-85
2023/08/11 01:04:12;;;;;;;5.88;3.92;;;13.90;99.90;;;-144.05;88.84;56887.06;6160931;23;20012;-85
2023/08/11 01:07:07;;;;;;;6.65;4.00;;;13.80;99.90;;;-144.05;88.78;56887.06;6162131;23;20009;-85
2023/08/11 01:09:58;;;;;;;5.55;3.72;;;13.90;99.90;;;-144.05;88.96;56916.81;6159766;23;20071;-85
2023/08/11 01:12:45;;;;;;;7.78;3.88;;;13.80;99.90;;;-144.05;88.98;56906.19;6159781;23;20107;-85
2023/08/11 01:15:26;;;;;;;7.55;4.10;;;13.80;99.90;;;-144.05;88.70;56908.31;6159743;23;20060;-87
2023/08/11 01:17:54;;;;;;;10.35;5.03;;;13.80;99.90;;;-144.05;88.76;56901.94;6160449;23;20010;-84
2023/08/11 01:20:21;;;;;;;7.97;3.75;;;13.80;99.90;;;-144.05;89.15;56906.19;6159664;23;20006;-82
2023/08/11 01:22:59;;;;;;;5.82;3.70;;;13.80;99.90;;;-144.05;89.16;56918.94;6159994;23;20351;-83
2023/08/11 01:25:25;;;;;;;7.72;3.63;;;13.80;99.90;;;-144.05;89.37;56916.81;6157585;23;20320;-83
2023/08/11 01:27:57;;;;;;;4.55;3.70;;;13.80;99.90;;;-144.05;89.28;56887.06;6159125;23;20427;-86
2023/08/11 01:30:28;;;;;;;5.78;3.88;;;13.80;99.90;;;-144.05;89.33;56908.31;6157152;23;20040;-84
2023/08/11 01:32:54;;;;;;;5.35;3.42;;;13.70;99.90;;;-144.05;89.38;56904.06;6158773;23;20001;-85
2023/08/11 01:35:21;;;;;;;5.43;3.88;;;13.60;99.90;;;-144.05;89.57;56929.53;6158398;23;19997;-85
2023/08/11 01:37:47;;;;;;;4.65;3.15;;;13.50;99.90;;;-144.05;89.62;56895.56;6158618;23;20308;-85
2023/08/11 01:40:14;;;;;;;6.05;3.67;;;13.50;99.90;;;-144.05;89.79;56916.81;6159141;23;20067;-85
2023/08/11 01:42:43;;;;;;;4.40;3.20;;;13.50;99.90;;;-144.05;89.90;56897.69;6158203;23;20033;-84
2023/08/11 01:45:13;;;;;;;4.68;3.58;;;13.50;99.90;;;-144.05;89.79;56929.53;6156979;23;20005;-83
2023/08/11 01:47:45;;;;;;;7.05;3.63;;;13.50;99.90;;;-144.05;89.52;56918.94;6157079;23;20375;-85
2023/08/11 01:50:14;;;;;;;7.03;4.05;;;13.50;99.90;;;-144.05;89.79;56921.06;6155114;23;20334;-84
2023/08/11 01:52:46;;;;;;;7.25;4.22;;;13.50;99.90;;;-144.05;89.82;56901.94;6157032;23;20308;-82
2023/08/11 01:55:13;;;;;;;4.32;3.55;;;13.50;99.90;;;-144.05;89.90;56912.56;6155602;23;20010;-82
2023/08/11 01:57:41;;;;;;;6.07;3.75;;;13.50;99.90;;;-144.05;89.85;56891.31;6155040;23;20029;-84
2023/08/11 02:00:16;;;;;;;8.05;3.78;;;13.50;99.90;;;-144.05;89.89;56901.94;6155040;23;20144;-81
2023/08/11 02:02:44;;;;;;;6.93;3.45;;;13.50;99.90;;;-144.05;89.91;56904.06;6156827;23;20068;-82
2023/08/11 02:05:15;;;;;;;8.65;4.35;;;13.50;99.90;;;-144.05;89.95;56882.81;6154956;23;20016;-84
2023/08/11 02:07:42;;;;;;;7.80;3.63;;;13.50;99.90;;;-144.05;89.86;56901.94;6155383;23;20009;-84
2023/08/11 02:10:09;;;;;;;6.43;3.28;;;13.50;99.90;;;-144.05;89.92;56884.94;6156831;23;20206;-84
2023/08/11 02:12:40;;;;;;;6.68;3.63;;;13.50;99.90;;;-144.05;89.95;56908.31;6155405;23;20005;-84
2023/08/11 02:15:07;;;;;;;8.20;4.05;;;13.50;99.90;;;-144.05;89.81;56912.56;6157410;23;20112;-83
2023/08/11 02:17:34;;;;;;;8.02;3.92;;;13.50;99.90;;;-144.05;89.98;56912.56;6155057;23;20340;-83
2023/08/11 02:20:12;;;;;;;4.50;3.60;;;13.50;99.90;;;-144.05;89.88;56921.06;6154877;23;20009;-83
2023/08/11 02:22:38;;;;;;;7.45;3.42;;;13.50;99.90;;;-144.05;90.13;56891.31;6155654;23;20016;-84
2023/08/11 02:25:05;;;;;;;7.47;4.03;;;13.50;99.90;;;-144.05;90.12;56897.69;6157106;23;20006;-85
2023/08/11 02:27:31;;;;;;;6.80;3.47;;;13.50;99.90;;;-144.05;90.11;56918.94;6131665;23;20447;-83
2023/08/11 02:29:57;;;;;;;7.90;3.78;;;13.60;99.90;;;-144.05;90.17;56891.31;6156609;23;20016;-81
2023/08/11 02:32:24;;;;;;;6.13;3.60;;;13.50;99.90;;;-144.05;90.25;56910.44;6130649;23;20005;-84
2023/08/11 02:34:50;;;;;;;6.68;4.28;;;13.40;99.90;;;-144.05;90.22;56908.31;6156559;23;20005;-85
2023/08/11 02:37:15;;;;;;;4.85;3.80;;;13.40;99.90;;;-144.05;90.40;56921.06;6156473;23;20036;-84
2023/08/11 02:39:41;;;;;;;6.35;3.60;;;13.40;99.90;;;-144.05;90.52;56910.44;6130281;23;20120;-82
2023/08/11 02:42:07;;;;;;;7.15;3.60;;;13.30;99.90;;;-144.05;90.44;56918.94;6129978;23;20005;-84
2023/08/11 02:44:33;;;;;;;6.28;4.10;;;13.40;99.90;;;-144.05;90.53;56895.56;6156617;23;20446;-83
2023/08/11 02:46:59;;;;;;;10.07;4.10;;;13.30;99.90;;;-144.05;90.42;56910.44;6156535;23;20060;-85
2023/08/11 02:49:24;;;;;;;6.43;3.60;;;13.30;99.90;;;-144.05;90.32;56914.69;6130762;23;20014;-84
2023/08/11 02:51:50;;;;;;;7.57;3.78;;;13.30;99.90;;;-144.05;90.40;56880.69;6157030;23;20053;-84
2023/08/11 02:54:16;;;;;;;3.38;3.08;;;13.30;99.90;;;-144.05;90.51;56906.19;6156712;23;20129;-84
2023/08/11 02:56:47;;;;;;;4.93;3.45;;;13.20;99.90;;;-144.05;90.31;56908.31;6158029;23;20332;-84
2023/08/11 02:59:14;;;;;;;6.53;4.20;;;13.20;99.90;;;-144.05;90.28;56901.94;6157087;23;20070;-82
2023/08/11 03:01:40;;;;;;;7.93;4.65;;;13.20;99.90;;;-144.05;90.47;56918.94;6158042;23;20032;-84
2023/08/11 03:04:06;;;;;;;9.05;4.30;;;13.30;99.90;;;-144.05;90.35;56901.94;6156726;23;20417;-83
2023/08/11 03:06:32;;;;;;;5.68;4.15;;;13.20;99.90;;;-144.05;90.49;56884.94;6157089;23;20040;-84
2023/08/11 03:08:58;;;;;;;7.22;4.03;;;13.30;99.90;;;-144.05;90.62;56901.94;6162966;23;20006;-82
2023/08/11 03:11:24;;;;;;;7.05;4.00;;;13.30;99.90;;;-144.05;90.46;56876.44;6165745;23;20006;-83
2023/08/11 03:13:50;;;;;;;7.13;4.65;;;13.30;99.90;;;-144.05;90.62;56904.06;6165711;23;20005;-83
2023/08/11 03:16:16;;;;;;;7.53;5.45;;;13.30;99.90;;;-144.05;90.44;56906.19;6165600;23;20012;-85
2023/08/11 03:18:41;;;;;;;9.13;5.22;;;13.30;99.90;;;-144.05;90.88;56912.56;6135866;23;20006;-84
2023/08/11 03:21:07;;;;;;;6.82;4.45;;;13.40;99.90;;;-144.05;90.76;56908.31;6134136;23;20013;-86
2023/08/11 03:23:34;;;;;;;7.25;4.30;;;13.40;99.90;;;-144.05;90.52;56895.56;6160577;23;20020;-84
2023/08/11 03:26:00;;;;;;;7.45;4.10;;;13.40;99.90;;;-144.05;90.38;56889.19;6159716;23;20064;-84
2023/08/11 03:28:26;;;;;;;5.30;3.95;;;13.40;99.90;;;-144.05;90.53;56914.69;6134166;23;20009;-83
2023/08/11 03:30:51;;;;;;;7.53;3.70;;;13.40;99.90;;;-144.05;90.35;56901.94;6161202;23;20008;-84
2023/08/11 03:33:17;;;;;;;7.88;3.78;;;13.50;99.90;;;-144.05;90.29;56910.44;6161948;23;20009;-84
2023/08/11 03:35:43;;;;;;;6.50;4.07;;;13.40;99.90;;;-144.05;90.45;56912.56;6162685;23;20458;-85
2023/08/11 03:38:09;;;;;;;8.73;5.13;;;13.50;99.90;;;-144.05;90.40;56897.69;6160304;23;20009;-83
2023/08/11 03:40:35;;;;;;;6.00;4.18;;;13.50;99.90;;;-144.05;90.21;56935.91;6161907;23;20077;-84
2023/08/11 03:43:01;;;;;;;8.02;4.25;;;13.50;99.90;;;-144.05;90.05;56904.06;6162495;23;20005;-84
2023/08/11 03:45:27;;;;;;;9.20;4.45;;;13.60;99.90;;;-144.05;89.75;56901.94;6135434;23;20010;-84
2023/08/11 03:47:53;;;;;;;4.95;3.50;;;13.50;99.90;;;-144.05;89.72;56914.69;6134841;23;20036;-83
2023/08/11 03:50:19;;;;;;;6.40;3.92;;;13.50;99.90;;;-144.05;89.81;56912.56;6161036;23;20012;-84
2023/08/11 03:52:46;;;;;;;7.32;4.20;;;13.40;99.90;;;-144.05;89.49;56893.44;6135120;23;20010;-82
2023/08/11 03:55:12;;;;;;;7.38;4.22;;;13.40;99.90;;;-144.05;89.25;56901.94;6161782;23;20001;-83
2023/08/11 03:57:38;;;;;;;7.38;4.18;;;13.40;99.90;;;-144.05;89.25;56916.81;6161958;23;20001;-82
2023/08/11 04:00:13;;;;;;;9.00;4.43;;;13.40;99.90;;;-144.05;89.20;56904.06;6175149;23;20065;-85
2023/08/11 04:02:43;;;;;;;10.52;4.45;;;13.40;99.90;;;-144.05;88.87;56931.66;6140689;23;20032;-83
2023/08/11 04:05:10;;;;;;;13.07;4.93;;;13.40;99.90;;;-144.05;88.97;56923.19;6165856;23;20012;-87
2023/08/11 04:07:37;;;;;;;10.00;4.15;;;13.40;99.90;;;-144.05;88.89;56933.78;6165275;23;20006;-84
2023/08/11 04:10:04;;;;;;;6.68;4.05;;;13.40;99.90;;;-144.05;88.83;56918.94;6138197;23;20036;-84
2023/08/11 04:12:32;;;;;;;10.93;4.05;;;13.30;99.90;;;-144.05;89.04;56921.06;6138254;23;20359;-85
2023/08/11 04:14:57;;;;;;;4.32;3.67;;;13.30;99.90;;;-144.05;89.04;56893.44;6136839;23;20013;-85
2023/08/11 04:17:23;;;;;;;7.07;4.15;;;13.30;99.90;;;-144.05;89.30;56908.31;6136843;23;20009;-85
2023/08/11 04:19:50;;;;;;;7.40;4.15;;;13.30;99.90;;;-144.05;89.33;56929.53;6164236;23;20124;-86
2023/08/11 04:22:16;;;;;;;10.13;4.18;;;13.30;99.90;;;-144.05;89.17;56882.81;6136848;23;20010;-84
2023/08/11 04:24:42;;;;;;;9.55;4.50;;;13.40;99.90;;;-144.05;89.31;56914.69;6161867;23;20009;-83
2023/08/11 04:27:08;;;;;;;6.32;3.78;;;13.30;99.90;;;-144.05;89.24;56878.56;6161879;23;20016;-84
2023/08/11 04:29:33;;;;;;;5.38;3.72;;;13.30;99.90;;;-144.05;89.34;56923.19;6161642;23;20016;-85
2023/08/11 04:32:04;;;;;;;6.22;3.83;;;13.20;99.90;;;-144.05;89.43;56891.31;6161981;23;20013;-85
2023/08/11 04:34:31;;;;;;;4.38;3.65;;;13.20;99.90;;;-144.05;89.61;56912.56;6135678;23;20006;-83
2023/08/11 04:36:57;;;;;;;5.25;3.90;;;13.20;99.90;;;-144.05;89.48;56916.81;6136037;23;20088;-84
2023/08/11 04:39:23;;;;;;;6.78;3.47;;;13.20;99.90;;;-144.05;89.49;56910.44;6162669;23;20010;-83
2023/08/11 04:41:49;;;;;;;6.05;4.25;;;13.30;99.90;;;-144.05;89.42;56901.94;6163444;23;20082;-84
2023/08/11 04:44:15;;;;;;;7.13;3.80;;;13.30;99.90;;;-144.05;89.52;56916.81;6160829;23;20010;-86
2023/08/11 04:46:41;;;;;;;8.70;4.25;;;13.30;99.90;;;-144.05;89.53;56931.66;6161958;23;20009;-84
2023/08/11 04:49:07;;;;;;;10.13;4.78;;;13.30;99.90;;;-144.05;89.44;56893.44;6135487;23;20451;-84
2023/08/11 04:51:32;;;;;;;8.30;5.47;;;13.40;99.90;;;-144.05;89.12;56921.06;6134824;23;20016;-86
2023/08/11 04:54:02;;;;;;;6.20;3.97;;;13.50;99.90;;;-144.05;89.17;56908.31;6160712;23;20263;-84
2023/08/11 04:56:29;;;;;;;10.88;4.82;;;13.50;99.90;;;-144.05;89.38;56918.94;6135062;23;20009;-84
2023/08/11 04:58:55;;;;;;;7.22;3.78;;;13.50;99.90;;;-144.05;89.46;56904.06;6135158;23;20465;-86
2023/08/11 05:01:22;;;;;;;9.25;4.03;;;13.50;99.90;;;-144.05;89.52;56910.44;6135492;23;20013;-82
2023/08/11 05:03:50;;;;;;;6.45;4.60;;;13.60;99.90;;;-144.05;89.44;56891.31;6135248;23;20320;-84
2023/08/11 05:06:19;;;;;;;6.00;4.00;;;13.60;99.90;;;-144.05;89.59;56923.19;6135373;23;20016;-85
2023/08/11 05:08:47;;;;;;;5.22;3.70;;;13.60;99.90;;;-144.05;89.49;56912.56;6161959;23;20443;-84
2023/08/11 05:11:13;;;;;;;10.73;4.63;;;13.70;99.90;;;-144.05;89.58;56908.31;6134942;23;20430;-85
2023/08/11 05:13:39;;;;;;;10.75;4.40;;;13.70;99.90;;;-144.05;89.43;56880.69;6161009;23;20057;-84
2023/08/11 05:16:05;;;;;;;15.05;5.53;;;13.80;99.90;;;-144.05;89.36;56914.69;6160869;23;20005;-85
2023/08/11 05:18:31;;;;;;;10.30;4.75;;;13.80;99.90;;;-144.05;89.14;56910.44;6134661;23;20009;-84
2023/08/11 05:20:57;;;;;;;9.57;4.45;;;14.00;99.90;;;-144.05;88.99;56912.56;6132793;23;20466;-84
2023/08/11 05:23:23;;;;;;;11.07;5.13;;;14.10;99.90;;;-144.05;89.00;56884.94;6169570;23;20010;-84
2023/08/11 05:25:48;;;;;;;10.40;5.32;;;14.30;99.90;;;-144.05;88.65;56901.94;6168780;23;20013;-85
2023/08/11 05:28:15;;;;;;;9.07;5.45;;;14.40;99.90;;;-144.05;87.38;56889.19;6161319;23;20431;-84
2023/08/11 05:30:40;;;;;;;6.72;4.03;;;14.60;99.90;;;-144.05;86.85;56923.19;6160423;23;20017;-84
2023/08/11 05:33:06;;;;;;;9.20;3.65;;;14.80;99.90;;;-144.05;86.45;56904.06;6135509;23;20416;-84
2023/08/11 05:35:32;;;;;;;8.32;3.88;;;15.00;99.90;;;-144.05;86.91;56912.56;6134142;23;20324;-85
2023/08/11 05:37:59;;;;;;;6.00;3.65;;;15.30;99.90;;;-144.05;86.45;56912.56;6159059;23;20005;-84
2023/08/11 05:40:25;;;;;;;9.50;4.53;;;15.50;99.90;;;-144.05;85.66;56904.06;6160598;23;20016;-85
2023/08/11 05:42:51;;;;;;;9.70;3.78;;;15.70;99.90;;;-144.05;83.93;56908.31;6160383;23;20041;-84
2023/08/11 05:45:17;;;;;;;9.25;3.90;;;15.90;99.90;;;-144.05;81.72;56904.06;6159361;23;20014;-83
2023/08/11 05:47:42;;;;;;;9.18;4.10;;;16.10;99.90;;;-144.05;81.21;56870.06;6133523;23;20013;-83
2023/08/11 05:50:09;;;;;;;12.23;3.80;;;16.40;99.90;;;-144.05;80.19;56925.28;6160316;23;20017;-83
2023/08/11 05:52:35;;;;;;;7.80;3.17;;;16.60;99.90;;;-144.05;79.55;56916.81;6159369;23;20443;-83
2023/08/11 05:55:00;;;;;;;7.85;3.83;;;16.90;99.90;;;-144.05;78.49;56916.81;6132559;23;20150;-83
2023/08/11 05:57:26;;;;;;;6.82;3.85;;;17.20;99.90;;;-144.05;77.47;56914.69;6160303;23;20024;-84
2023/08/11 05:59:52;;;;;;;10.85;4.82;;;17.50;99.90;;;-144.05;75.41;56914.69;6133200;23;20168;-84
2023/08/11 06:02:18;;;;;;;9.40;3.85;;;17.70;99.90;;;-144.05;75.03;56931.66;6159808;23;20081;-84
2023/08/11 06:04:45;;;;;;;8.02;3.83;;;18.00;99.90;;;-144.05;72.53;56938.03;6159538;23;20006;-84
2023/08/11 06:07:11;;;;;;;10.80;4.80;;;18.20;99.90;;;-144.05;69.99;56933.78;6133408;23;20513;-83
2023/08/11 06:09:37;;;;;;;6.85;3.10;;;18.40;99.90;;;-144.05;68.38;56948.66;6133426;23;20489;-82
2023/08/11 06:12:03;;;;;;;6.65;2.80;;;18.70;99.90;;;-144.05;65.65;56946.53;6159824;23;20006;-84
2023/08/11 06:14:29;;;;;;;6.82;2.72;;;19.00;99.90;;;-144.05;63.82;56963.53;6132775;23;20006;-84
2023/08/11 06:16:55;;;;;;;5.75;2.53;;;19.20;99.90;;;-144.05;62.72;56946.53;6132974;23;20085;-81
2023/08/11 06:19:21;;;;;;;5.95;2.88;;;19.40;99.90;;;-144.05;62.53;56950.78;6132667;23;20320;-84
2023/08/11 06:21:47;;;;;;;3.72;2.17;;;19.70;99.90;;;-144.05;60.24;56952.91;6133312;23;20096;-85
2023/08/11 06:24:13;;;;;;;5.03;2.38;;;19.90;99.90;;;-144.05;59.84;56940.16;6134219;23;20009;-84
2023/08/11 06:26:38;;;;;;;5.28;2.40;;;20.00;99.90;;;-144.05;59.50;56944.41;6159892;23;20009;-85
2023/08/11 06:29:05;;;;;;;4.00;2.10;;;20.10;99.90;;;-144.05;58.48;56972.03;6160204;23;20012;-83
2023/08/11 06:31:31;;;;;;;4.88;2.10;;;20.30;99.90;;;-144.05;58.43;56927.41;6159202;23;20033;-86
2023/08/11 06:33:57;;;;;;;5.15;1.98;;;20.50;99.90;;;-144.05;57.36;56963.53;6160266;23;20035;-83
2023/08/11 06:36:23;;;;;;;7.55;2.15;;;20.60;99.90;;;-144.05;56.30;56946.53;6160448;23;20072;-83
2023/08/11 06:38:49;;;;;;;5.88;2.50;;;20.70;99.90;;;-144.05;55.51;56963.53;6159820;23;20013;-83
2023/08/11 06:41:15;;;;;;;3.88;2.00;;;20.80;99.90;;;-144.05;54.92;56972.03;6183310;23;20010;-85
2023/08/11 06:43:41;;;;;;;4.82;1.85;;;21.00;99.90;;;-144.05;54.80;56974.16;6160298;23;20057;-84
2023/08/11 06:46:07;;;;;;;3.40;1.70;;;21.10;99.90;;;-144.05;54.61;56976.28;6160723;23;20009;-84
2023/08/11 06:48:33;;;;;;;4.75;2.17;;;21.20;99.90;;;-144.05;53.68;56959.28;6160886;23;20009;-85
2023/08/11 06:50:59;;;;;;;5.55;2.25;;;21.30;99.90;;;-144.05;53.20;56972.03;6163381;23;20101;-83
2023/08/11 06:53:25;;;;;;;5.32;2.13;;;21.40;99.90;;;-144.05;52.00;56999.63;6173126;23;20021;-82
2023/08/11 06:55:51;;;;;;;4.00;2.03;;;21.60;99.90;;;-144.05;52.69;56991.13;6173388;23;20016;-84
2023/08/11 06:58:17;;;;;;;4.10;1.95;;;21.70;99.90;;;-144.05;51.35;56989.00;6169152;23;20005;-84
2023/08/11 07:00:43;;;;;;;5.95;2.50;;;21.90;99.90;;;-144.05;51.15;56997.50;6167987;23;20020;-83
2023/08/11 07:03:09;;;;;;;4.85;1.77;;;22.10;99.90;;;-144.05;50.45;56991.13;6186889;23;20006;-82
2023/08/11 07:05:35;;;;;;;6.03;2.17;;;22.30;99.90;;;-144.05;48.73;57012.38;6155923;23;20033;-82
2023/08/11 07:08:01;;;;;;;3.15;1.83;;;22.50;99.90;;;-144.05;49.82;57025.13;6171193;23;19997;-79
2023/08/11 07:10:27;;;;;;;3.47;2.00;;;22.60;99.90;;;-144.05;48.47;57029.38;6168751;23;20454;-82
2023/08/11 07:12:53;;;;;;;2.80;2.05;;;22.70;99.90;;;-144.05;47.36;57020.88;6159758;23;20068;-83
2023/08/11 07:15:19;;;;;;;4.10;1.90;;;22.90;99.90;;;-144.05;47.48;57010.25;6160421;23;20458;-82
2023/08/11 07:17:45;;;;;;;4.82;2.20;;;23.00;99.90;;;-144.05;46.05;57018.75;6160095;23;20009;-81
2023/08/11 07:20:11;;;;;;;6.40;2.00;;;23.00;99.90;;;-144.05;46.38;57020.88;6160778;23;20010;-83
2023/08/11 07:22:37;;;;;;;5.75;2.05;;;23.30;99.90;;;-144.05;45.01;57023.00;6159175;23;20481;-82
2023/08/11 07:25:04;;;;;;;3.75;1.60;;;23.40;99.90;;;-144.05;45.01;57031.50;6158214;23;20018;-82
2023/08/11 07:27:30;;;;;;;2.97;1.70;;;23.60;99.90;;;-144.05;44.94;57033.63;6159189;23;20351;-84
2023/08/11 07:29:55;;;;;;;4.60;2.28;;;23.80;99.90;;;-144.05;43.74;57027.25;6132832;23;20013;-83
2023/08/11 07:32:21;;;;;;;5.85;1.98;;;24.00;99.90;;;-144.05;43.81;57061.22;6158738;23;20001;-83
2023/08/11 07:34:47;;;;;;;4.90;1.67;;;24.20;99.90;;;-144.05;43.12;57073.97;6159025;23;20447;-81
2023/08/11 07:37:13;;;;;;;3.60;1.75;;;24.50;99.90;;;-144.05;43.28;57054.88;6161651;23;20021;-84
2023/08/11 07:39:39;;;;;;;3.25;2.05;;;24.70;99.90;;;-144.05;42.23;57069.72;6158403;23;20025;-82
2023/08/11 07:42:05;;;;;;;5.88;2.05;;;24.80;99.90;;;-144.05;41.56;57069.72;6131435;23;20050;-81
2023/08/11 07:44:33;;;;;;;5.07;2.03;;;24.80;99.90;;;-144.05;41.50;57095.22;6157751;23;20417;-81
2023/08/11 07:47:03;;;;;;;2.58;1.60;;;24.90;99.90;;;-144.05;41.17;57073.97;6157736;23;20091;-82
2023/08/11 07:49:29;;;;;;;3.50;1.90;;;25.10;99.90;;;-144.05;40.72;57078.22;6131253;23;20013;-82
2023/08/11 07:51:57;;;;;;;3.00;1.73;;;25.40;99.90;;;-144.05;39.64;57084.59;6157730;23;20012;-81
2023/08/11 07:54:24;;;;;;;2.80;1.90;;;25.40;99.90;;;-144.05;38.94;57114.34;6157242;23;20061;-83
2023/08/11 07:56:50;;;;;;;7.82;2.40;;;25.60;99.90;;;-144.05;39.38;57112.22;6159338;23;20463;-83
2023/08/11 07:59:16;;;;;;;6.25;2.25;;;25.60;99.90;;;-144.05;40.07;57105.84;6161886;23;20041;-83
2023/08/11 08:01:42;;;;;;;8.10;1.60;;;25.80;99.90;;;-144.05;39.65;57116.47;6161537;23;20386;-83
2023/08/11 08:04:10;;;;;;;6.43;2.20;;;26.10;99.90;;;-144.05;38.60;57124.97;6134723;23;20057;-83
2023/08/11 08:06:43;;;;;;;3.63;1.55;;;26.30;99.90;;;-144.05;38.50;57122.84;6134485;23;20088;-83
2023/08/11 08:09:11;;;;;;;3.08;1.70;;;26.50;99.90;;;-144.05;39.11;57135.56;6160396;23;20132;-83
2023/08/11 08:11:46;;;;;;;3.45;2.03;;;26.50;99.90;;;-144.05;39.17;57118.59;6160103;23;20068;-81
2023/08/11 08:14:13;;;;;;;2.27;1.40;;;26.60;99.90;;;-144.05;38.55;57141.94;6160463;23;20010;-82
2023/08/11 08:16:46;;;;;;;4.03;1.90;;;26.80;99.90;;;-144.05;37.61;57120.72;6160264;23;20386;-83
2023/08/11 08:19:18;;;;;;;5.13;2.00;;;26.70;99.90;;;-144.05;37.72;57150.44;6157888;23;20033;-84
2023/08/11 08:21:46;;;;;;;4.18;1.40;;;26.80;99.90;;;-144.05;38.51;57178.06;6131810;23;20081;-84
2023/08/11 08:24:16;;;;;;;3.85;1.65;;;27.00;99.90;;;-144.05;38.52;57161.06;6158835;23;20103;-85
2023/08/11 08:26:44;;;;;;;3.97;1.73;;;27.20;99.90;;;-144.05;38.01;57173.81;6157287;23;20432;-84
2023/08/11 08:29:10;;;;;;;3.30;2.15;;;27.20;99.90;;;-144.05;37.45;57184.44;6158011;23;20006;-83
2023/08/11 08:31:36;;;;;;;2.92;1.90;;;27.10;99.90;;;-144.05;36.99;57156.81;6131560;23;20523;-82
2023/08/11 08:34:02;;;;;;;2.70;1.73;;;27.00;99.90;;;-144.05;37.15;57163.19;6159114;23;20053;-84
2023/08/11 08:36:28;;;;;;;2.80;1.90;;;27.10;99.90;;;-144.05;36.81;57154.69;6160282;23;20002;-82
2023/08/11 08:38:54;;;;;;;4.15;1.95;;;27.20;99.90;;;-144.05;36.82;57173.81;6159269;23;20064;-83
2023/08/11 08:41:30;;;;;;;3.67;2.00;;;27.30;99.90;;;-144.05;36.43;57152.56;6132719;23;20014;-83
2023/08/11 08:44:00;;;;;;;3.65;1.55;;;27.30;99.90;;;-144.05;36.10;57186.56;6132348;23;20029;-82
2023/08/11 08:46:31;;;;;;;2.97;1.73;;;27.40;99.90;;;-144.05;37.01;57156.81;6132848;23;20010;-83
2023/08/11 08:49:24;;;;;;;5.38;2.08;;;27.40;99.90;;;-144.05;37.24;57184.44;6132218;23;20043;-85
2023/08/11 08:51:52;;;;;;;3.72;1.83;;;27.40;99.90;;;-144.05;36.33;57195.06;6158243;23;20051;-82
2023/08/11 08:54:19;;;;;;;3.95;1.65;;;27.60;99.90;;;-144.05;36.13;57197.19;6156988;23;20013;-82
2023/08/11 08:56:46;;;;;;;5.03;1.77;;;27.70;99.90;;;-144.05;36.66;57169.56;6157934;23;20010;-81
2023/08/11 08:59:12;;;;;;;2.22;1.63;;;27.80;99.90;;;-144.05;36.26;57203.56;6130249;23;20005;-82
2023/08/11 09:01:38;;;;;;;2.85;1.90;;;28.00;99.90;;;-144.05;35.79;57212.03;6156488;23;20325;-81
2023/08/11 09:04:07;;;;;;;3.22;1.73;;;28.10;99.90;;;-144.05;35.54;57209.91;6156179;23;20466;-81
2023/08/11 09:06:35;;;;;;;4.68;2.10;;;28.00;99.90;;;-144.05;35.10;57226.91;6130125;23;20117;-83
2023/08/11 09:09:04;;;;;;;4.25;1.88;;;28.10;99.90;;;-144.05;35.18;57190.81;6156517;23;20390;-82
2023/08/11 09:11:30;;;;;;;6.45;2.10;;;28.10;99.90;;;-144.05;35.64;57201.44;6156196;23;20001;-83
2023/08/11 09:14:08;;;;;;;2.75;2.10;;;28.40;99.90;;;-144.05;34.97;57214.16;6130188;23;20005;-82
2023/08/11 09:16:39;;;;;;;4.75;2.08;;;28.40;99.90;;;-144.05;35.57;57235.41;6130729;23;20021;-82
2023/08/11 09:19:11;;;;;;;3.22;2.03;;;28.80;99.90;;;-144.05;34.02;57233.28;6129992;23;20005;-81
2023/08/11 09:21:41;;;;;;;3.15;1.73;;;28.80;99.40;;;-144.05;34.08;57256.66;6156994;23;20387;-81
2023/08/11 09:24:12;;;;;;;6.53;1.98;;;29.00;99.90;;;-144.05;34.51;57252.41;6156280;23;20088;-81
2023/08/11 09:26:41;;;;;;;3.92;1.80;;;29.10;99.90;;;-144.05;34.03;57265.16;6130402;23;20020;-82
2023/08/11 09:29:07;;;;;;;4.70;2.00;;;29.20;99.90;;;-144.05;33.67;57282.16;6129116;23;20044;-81
2023/08/11 09:31:34;;;;;;;6.63;1.80;;;29.20;99.30;;;-144.05;33.84;57269.41;6156242;23;20006;-82
2023/08/11 09:34:17;;;;;;;3.92;1.75;;;29.20;99.60;;;-144.05;33.36;57297.00;6156177;23;20044;-82
2023/08/11 09:36:46;;;;;;;3.65;1.83;;;29.20;98.50;;;-144.05;33.65;57248.16;6156469;23;20100;-80
2023/08/11 09:39:13;;;;;;;1.77;1.38;;;29.30;98.70;;;-144.05;33.50;57277.91;6157817;23;20059;-82
2023/08/11 09:41:48;;;;;;;2.78;1.60;;;29.40;98.40;;;-144.05;33.39;57243.91;6131936;23;20006;-80
2023/08/11 09:44:19;;;;;;;3.33;1.60;;;29.40;98.00;;;-144.05;33.16;57243.91;6157094;23;20347;-81
2023/08/11 09:46:47;;;;;;;2.20;1.50;;;29.30;97.10;;;-144.05;32.81;57252.41;6156728;23;20351;-79
2023/08/11 09:49:13;;;;;;;2.83;1.88;;;29.50;96.50;;;-144.05;33.13;57258.78;6156636;23;20037;-80
2023/08/11 09:51:41;;;;;;;3.67;1.63;;;29.60;97.10;;;-144.05;33.03;57303.38;6129959;23;20009;-80
2023/08/11 09:54:10;;;;;;;3.90;1.70;;;29.70;97.20;;;-144.05;33.05;57294.88;6156133;23;20002;-84
2023/08/11 09:56:45;;;;;;;2.30;1.80;;;29.60;96.70;;;-144.05;33.18;57303.38;6156351;23;20048;-81
2023/08/11 09:59:18;;;;;;;4.45;2.05;;;29.70;96.80;;;-144.05;33.87;57277.91;6156890;23;20005;-81
2023/08/11 10:01:46;;;;;;;3.25;2.10;;;29.70;97.20;;;-144.05;34.72;57258.78;6156585;23;20005;-78
2023/08/11 10:04:41;;;;;;;3.25;1.73;;;29.50;97.70;;;-144.05;31.98;57305.50;6156802;23;20323;-79
2023/08/11 10:07:17;;;;;;;3.83;1.50;;;29.60;95.30;;;-144.05;31.96;57292.75;6130851;23;20036;-81